LEJRGEML

Guest
Details From LEJR - Jerez
To GEML - Melilla
Flight Number -
Tags Routegen
Created
Modified
Stats Distance 185 nm / 343 km
Max Altitude 0 ft / 0 m
Waypoints 4
Social Downloads 6
Likes 0
Share VATSIM

Download

Looking for another format? Having issues loading an existing format? Contact us
Advertisement - Login to hide

Notes

None

Route

LEJR +36.60_-006.13 +35.65_-003.26 GEML

ID Type Via Altitude Latitude Longitude Leg Dist Tot Dist Heading (true) Name
O LEJR APT - 0 ft / 0 m 36.73497˚ -6.06481˚ - 0 nm - -
+36.60_-006.13 DME - 0 ft / 0 m 36.60014˚ -6.13041˚ 8 nm 8 nm 201° / 201° -
+35.65_-003.26 DME - 0 ft / 0 m 35.64712˚ -3.25692˚ 150 nm 159 nm 111° / 113° -
O GEML APT - 0 ft / 0 m 35.28586˚ -2.96118˚ 26 nm 185 nm 146° / 146° -

Altitude Profile

Advertisement - Login to hide

Weather


0- 5 10 15 20 25 30 35+ Temperature / ° C

Clouds and Precipitation
Forecast for 2018-05-21 12:00 UTC. Updated 4 minutes ago

Ground ~20,000 ft ~40,000 ft Winds

LEJR

Details ICAO LEJR (XRY)
Name Jerez
Region Spain
Timezone Europe/Madrid (UTC+2.0)
Stats Elevation 93 ft / 28 m (AMSL)
Location 36.744622° -6.060110°
Runways 2
Magnetic Variation 1.288° W

METAR

LEJR 210900Z 20006KT 160V250 9999 FEW055 20/14 Q1013

Decode

TAF

TAF LEJR 210500Z 2106/2206 VRB02KT 9999 FEW035 TX26/2115Z TN14/2106Z PROB40 TEMPO 2106/2108 4000 BR BECMG 2110/2112 24011KT BECMG 2120/2122 18004KT PROB40 TEMPO 2202/2206 4000 BR BKN012

Decode

Departure Runways

ID Width Length Bearing (true) Bearing (mag) Surface Threshold Offset Overrun Length
02 148 ft / 45 m 7,559 ft / 2,304 m 21.34° 22.63° Asphalt 0 ft / 0 m 0 ft / 0 m
03 148 ft / 45 m 7,559 ft / 2,304 m 21.34° 22.63° Asphalt 0 ft / 0 m 0 ft / 0 m
20 148 ft / 45 m 7,559 ft / 2,304 m 201.34° 202.63° Asphalt 0 ft / 0 m 0 ft / 0 m
21 148 ft / 45 m 7,559 ft / 2,304 m 201.34° 202.63° Asphalt 0 ft / 0 m 0 ft / 0 m

GEML

Details ICAO GEML (MLN)
Name MELILLA
Region Ceuta and Melilla
Timezone Africa/Casablanca (UTC+0.0)
Stats Elevation 156 ft / 48 m (AMSL)
Location 35.280374° -2.956708°
Runways 1
Magnetic Variation 0.407° W

METAR

GEML 210900Z 07005KT 020V130 9999 FEW014 20/15 Q1013

Decode

TAF

TAF GEML 210800Z 2109/2209 09006KT 9999 FEW010 TX22/2209Z TN14/2205Z

Decode

Destination Runways

ID Width Length Bearing (true) Bearing (mag) Surface Threshold Offset Overrun Length
15 148 ft / 45 m 4,811 ft / 1,466 m 146.39° 146.80° Asphalt 755 ft / 230 m 0 ft / 0 m
33 148 ft / 45 m 4,811 ft / 1,466 m 326.40° 326.81° Asphalt 0 ft / 0 m 0 ft / 0 m

Popular Alternatives